Airport View

Enter AWOS ICAO identifier for current METAR.

ex. KFNL

KLGC 191915Z AUTO 31013KT 10SM CLR 09/M08 A3016 RMK AO2 T00901076

19 Jan 2020 19:34

Frequency: 126.325

Phone: 706-845-0677

Other Area AWOS: KPIM - KCCO - KAUO - KCSG

TAF KCSG 191730Z 1918/2018 32011G19KT P6SM FEW250 FM200100 34008KT P6SM SKC